createdAt,value
2024-04-19T00:00:56.063Z,9.20
2024-04-19T00:03:23.866Z,9.20
2024-04-19T00:05:54.058Z,9.20
2024-04-19T00:08:37.104Z,9.10
2024-04-19T00:11:07.753Z,9.10
2024-04-19T00:13:35.233Z,9.10
2024-04-19T00:16:05.262Z,9.10
2024-04-19T00:18:32.646Z,9.10
2024-04-19T00:21:03.031Z,9.10
2024-04-19T00:23:30.552Z,9.10
2024-04-19T00:26:03.126Z,9.10
2024-04-19T00:28:36.618Z,9.10
2024-04-19T00:31:06.972Z,9.00
2024-04-19T00:33:34.923Z,9.00
2024-04-19T00:36:05.045Z,9.00
2024-04-19T00:38:32.658Z,9.00
2024-04-19T00:41:05.214Z,9.00
2024-04-19T00:43:32.552Z,8.90
2024-04-19T00:46:02.545Z,8.90
2024-04-19T00:48:29.973Z,8.80
2024-04-19T00:51:01.991Z,8.80
2024-04-19T00:53:32.908Z,8.80
2024-04-19T00:56:25.858Z,8.80
2024-04-19T00:58:53.912Z,8.70
2024-04-19T01:01:25.246Z,8.70
2024-04-19T01:03:52.894Z,8.70
2024-04-19T01:06:29.416Z,8.60
2024-04-19T01:08:56.899Z,8.60
2024-04-19T01:11:35.692Z,8.60
2024-04-19T01:14:04.093Z,8.50
2024-04-19T01:16:34.063Z,8.50
2024-04-19T01:19:01.367Z,8.50
2024-04-19T01:22:31.314Z,8.40
2024-04-19T01:24:59.911Z,8.40
2024-04-19T01:27:32.457Z,8.40
2024-04-19T01:29:59.826Z,8.30
2024-04-19T01:32:43.745Z,8.40
2024-04-19T01:35:11.146Z,8.30
2024-04-19T01:37:41.082Z,8.30
2024-04-19T01:40:09.662Z,8.30
2024-04-19T01:51:46.079Z,8.30
2024-04-19T01:54:16.606Z,8.20
2024-04-19T01:56:46.769Z,8.20
2024-04-19T01:59:14.082Z,8.20
2024-04-19T02:01:44.109Z,8.10
2024-04-19T02:04:11.579Z,8.10
2024-04-19T02:06:41.742Z,8.10
2024-04-19T02:09:35.299Z,8.10
2024-04-19T02:12:06.272Z,8.00
2024-04-19T02:14:35.014Z,8.00
2024-04-19T02:17:05.097Z,8.00
2024-04-19T02:19:37.386Z,8.00
2024-04-19T02:22:07.695Z,7.90
2024-04-19T02:24:40.453Z,7.90
2024-04-19T02:27:19.266Z,7.90
2024-04-19T02:30:05.443Z,7.90
2024-04-19T02:32:35.436Z,7.80
2024-04-19T02:35:05.548Z,7.80
2024-04-19T02:37:35.537Z,7.80
2024-04-19T02:40:10.383Z,7.80
2024-04-19T02:42:40.455Z,7.70
2024-04-19T02:45:08.442Z,7.70
2024-04-19T02:47:39.349Z,7.70
2024-04-19T02:50:09.879Z,7.70
2024-04-19T02:52:39.775Z,7.60
2024-04-19T02:55:12.484Z,7.60
2024-04-19T02:57:42.618Z,7.60
2024-04-19T03:00:14.623Z,7.60
2024-04-19T03:02:47.971Z,7.60
2024-04-19T03:05:18.151Z,7.60
2024-04-19T03:07:48.122Z,7.60
2024-04-19T03:10:20.940Z,7.60
2024-04-19T03:12:51.019Z,7.60
2024-04-19T03:15:21.833Z,7.60
2024-04-19T03:17:51.959Z,7.60
2024-04-19T03:20:21.924Z,7.60
2024-04-19T03:22:51.842Z,7.60
2024-04-19T03:25:24.367Z,7.50
2024-04-19T03:27:54.659Z,7.60
2024-04-19T03:30:30.708Z,7.60
2024-04-19T03:33:00.792Z,7.60
2024-04-19T03:35:30.746Z,7.60
2024-04-19T03:38:00.649Z,7.60
2024-04-19T03:40:33.289Z,7.60
2024-04-19T03:43:03.316Z,7.60
2024-04-19T03:45:46.212Z,7.60
2024-04-19T03:48:18.400Z,7.50
2024-04-19T03:50:49.098Z,7.60
2024-04-19T03:53:19.257Z,7.60
2024-04-19T03:55:51.848Z,7.60
2024-04-19T03:58:21.761Z,7.60
2024-04-19T04:00:51.956Z,7.50
2024-04-19T04:03:22.194Z,7.60
2024-04-19T04:05:56.525Z,7.50
2024-04-19T04:08:29.843Z,7.60
2024-04-19T04:11:05.389Z,7.60
2024-04-19T04:13:35.419Z,7.50
2024-04-19T04:16:07.313Z,7.50
2024-04-19T04:18:38.358Z,7.60
2024-04-19T04:21:17.451Z,7.50
2024-04-19T04:23:48.955Z,7.50
2024-04-19T04:26:21.721Z,7.50
2024-04-19T04:28:52.265Z,7.50
2024-04-19T04:31:22.217Z,7.50
2024-04-19T04:33:52.388Z,7.50
2024-04-19T04:36:22.385Z,7.50
2024-04-19T04:38:52.576Z,7.50
2024-04-19T04:41:25.686Z,7.50
2024-04-19T04:43:55.697Z,7.50
2024-04-19T04:46:25.697Z,7.50
2024-04-19T04:48:55.724Z,7.50
2024-04-19T04:51:25.805Z,7.50
2024-04-19T04:53:55.901Z,7.50
2024-04-19T04:56:28.995Z,7.50
2024-04-19T04:58:58.959Z,7.50
2024-04-19T05:01:29.193Z,7.50
2024-04-19T05:03:59.294Z,7.50
2024-04-19T05:06:29.665Z,7.50
2024-04-19T05:08:59.692Z,7.50
2024-04-19T05:11:32.408Z,7.50
2024-04-19T05:14:02.396Z,7.50
2024-04-19T05:16:32.429Z,7.50
2024-04-19T05:19:02.485Z,7.50
2024-04-19T05:21:32.906Z,7.50
2024-04-19T05:24:03.096Z,7.50
2024-04-19T05:26:35.719Z,7.50
2024-04-19T05:29:05.934Z,7.60
2024-04-19T05:31:35.941Z,7.60
2024-04-19T05:34:05.870Z,7.60
2024-04-19T05:36:35.963Z,7.50
2024-04-19T05:39:06.745Z,7.60
2024-04-19T05:41:39.639Z,7.50
2024-04-19T05:44:09.882Z,7.50
2024-04-19T05:46:39.875Z,7.60
2024-04-19T05:49:10.012Z,7.60
2024-04-19T05:51:40.060Z,7.60
2024-04-19T05:54:09.997Z,7.60
2024-04-19T05:56:42.555Z,7.60
2024-04-19T05:59:12.721Z,7.60
2024-04-19T06:01:43.774Z,7.60
2024-04-19T06:04:14.051Z,7.70
2024-04-19T06:06:44.066Z,7.70
2024-04-19T06:09:14.096Z,7.70
2024-04-19T06:11:46.826Z,7.70
2024-04-19T06:14:17.401Z,7.70
2024-04-19T06:16:47.744Z,7.70
2024-04-19T06:19:15.897Z,7.70
2024-04-19T06:21:45.992Z,7.70
2024-04-19T06:24:18.324Z,7.70
2024-04-19T06:26:50.872Z,7.70
2024-04-19T06:29:21.649Z,7.80
2024-04-19T06:31:51.646Z,7.80
2024-04-19T06:34:21.749Z,7.80
2024-04-19T06:36:51.722Z,7.80
2024-04-19T06:39:27.570Z,7.80
2024-04-19T06:42:01.150Z,7.80
2024-04-19T06:44:31.156Z,7.80
2024-04-19T06:47:01.068Z,7.90
2024-04-19T06:49:31.075Z,7.90
2024-04-19T06:52:01.131Z,7.90
2024-04-19T06:54:31.262Z,7.90
2024-04-19T06:57:03.849Z,8.00
2024-04-19T06:59:33.772Z,8.00
2024-04-19T07:02:04.429Z,8.00
2024-04-19T07:04:34.499Z,8.00
2024-04-19T07:07:04.587Z,8.00
2024-04-19T07:09:34.785Z,8.00
2024-04-19T07:12:08.620Z,8.10
2024-04-19T07:14:38.697Z,8.10
2024-04-19T07:17:08.626Z,8.10
2024-04-19T07:19:38.596Z,8.10
2024-04-19T07:22:08.659Z,8.10
2024-04-19T07:24:38.822Z,8.10
2024-04-19T07:27:11.422Z,8.20
2024-04-19T07:29:41.394Z,8.20
2024-04-19T07:32:11.424Z,8.20
2024-04-19T07:34:41.581Z,8.20
2024-04-19T07:37:11.537Z,8.20
2024-04-19T07:39:44.535Z,8.20
2024-04-19T07:42:17.055Z,8.30
2024-04-19T07:44:46.998Z,8.30
2024-04-19T07:47:17.057Z,8.30
2024-04-19T07:49:46.922Z,8.30
2024-04-19T07:52:16.959Z,8.30
2024-04-19T07:54:47.145Z,8.40
2024-04-19T07:57:20.669Z,8.40
2024-04-19T07:59:50.907Z,8.40
2024-04-19T08:02:22.377Z,8.40
2024-04-19T08:04:52.389Z,8.40
2024-04-19T08:07:31.495Z,8.50
2024-04-19T08:10:05.228Z,8.50
2024-04-19T08:12:40.904Z,8.50
2024-04-19T08:15:11.839Z,8.60
2024-04-19T08:17:42.674Z,8.60
2024-04-19T08:20:13.309Z,8.60
2024-04-19T08:22:43.228Z,8.60
2024-04-19T08:25:13.129Z,8.70
2024-04-19T08:27:46.479Z,8.70
2024-04-19T08:30:17.544Z,8.80
2024-04-19T08:32:48.830Z,8.80
2024-04-19T08:35:19.122Z,8.80
2024-04-19T08:37:49.187Z,8.90
2024-04-19T08:40:19.231Z,8.90
2024-04-19T08:42:52.104Z,9.00
2024-04-19T08:45:25.216Z,9.00
2024-04-19T08:47:57.294Z,9.10
2024-04-19T08:50:34.936Z,9.10
2024-04-19T08:53:15.334Z,9.20
2024-04-19T08:55:47.461Z,9.30
2024-04-19T08:58:21.999Z,9.40
2024-04-19T09:00:52.202Z,9.40
2024-04-19T09:03:22.492Z,9.50
2024-04-19T09:05:52.601Z,9.50
2024-04-19T09:08:26.409Z,9.60
2024-04-19T09:10:56.398Z,9.60
2024-04-19T09:13:29.030Z,9.70
2024-04-19T09:15:59.093Z,9.70
2024-04-19T09:18:30.073Z,9.80
2024-04-19T09:21:00.539Z,9.80
2024-04-19T09:23:30.720Z,9.90
2024-04-19T09:26:04.073Z,10.00
2024-04-19T09:28:36.856Z,10.10
2024-04-19T09:31:08.562Z,10.10
2024-04-19T09:33:42.837Z,10.20
2024-04-19T09:36:20.092Z,10.20
2024-04-19T09:38:51.298Z,10.30
2024-04-19T09:41:22.116Z,10.30
2024-04-19T09:43:56.303Z,10.30
2024-04-19T09:46:31.394Z,10.40
2024-04-19T09:49:04.994Z,10.40
2024-04-19T09:51:44.471Z,10.40
2024-04-19T09:54:17.400Z,10.40
2024-04-19T09:56:57.865Z,10.40
2024-04-19T09:59:32.713Z,10.40
2024-04-19T10:02:03.856Z,10.40
2024-04-19T10:04:36.542Z,10.30
2024-04-19T10:07:11.357Z,10.30
2024-04-19T10:09:45.268Z,10.30
2024-04-19T10:12:16.319Z,10.30
2024-04-19T10:14:48.907Z,10.20
2024-04-19T10:17:19.030Z,10.20
2024-04-19T10:19:54.417Z,10.20
2024-04-19T10:22:26.028Z,10.20
2024-04-19T10:25:00.655Z,10.20
2024-04-19T10:27:31.895Z,10.20
2024-04-19T10:30:13.840Z,10.20
2024-04-19T10:32:57.766Z,10.20
2024-04-19T10:35:31.755Z,10.20
2024-04-19T10:38:02.919Z,10.20
2024-04-19T10:40:33.132Z,10.20
2024-04-19T10:43:07.528Z,10.20
2024-04-19T10:45:40.733Z,10.20
2024-04-19T10:48:13.047Z,10.20
2024-04-19T10:50:46.861Z,10.20
2024-04-19T10:53:18.208Z,10.30
2024-04-19T10:55:49.995Z,10.30
2024-04-19T10:58:21.563Z,10.30
2024-04-19T11:00:54.810Z,10.40
2024-04-19T11:03:25.218Z,10.40
2024-04-19T11:05:55.830Z,10.40
2024-04-19T11:08:26.219Z,10.50
2024-04-19T11:10:57.842Z,10.50
2024-04-19T11:13:29.165Z,10.50
2024-04-19T11:16:03.275Z,10.50
2024-04-19T11:18:33.545Z,10.60
2024-04-19T11:21:08.543Z,10.60
2024-04-19T11:23:42.251Z,10.60
2024-04-19T11:26:12.249Z,10.60
2024-04-19T11:28:39.637Z,10.70
2024-04-19T11:31:15.084Z,10.70
2024-04-19T11:33:45.309Z,10.70
2024-04-19T11:36:16.311Z,10.80
2024-04-19T11:38:46.407Z,10.80
2024-04-19T11:41:16.616Z,10.90
2024-04-19T11:43:49.948Z,11.00
2024-04-19T11:46:28.503Z,11.10
2024-04-19T11:49:01.193Z,11.20
2024-04-19T11:51:33.146Z,11.20
2024-04-19T11:54:03.705Z,11.30
2024-04-19T11:56:41.590Z,11.40
2024-04-19T11:59:11.626Z,11.40
2024-04-19T12:01:44.549Z,11.50
2024-04-19T12:04:14.978Z,11.50
2024-04-19T12:06:51.972Z,11.40
2024-04-19T12:09:22.209Z,11.30
2024-04-19T12:12:32.908Z,11.10
2024-04-19T12:15:33.614Z,11.00
2024-04-19T12:17:36.286Z,10.80
2024-04-19T12:20:12.415Z,10.80
2024-04-19T12:22:56.993Z,10.70
2024-04-19T12:25:32.596Z,10.70
2024-04-19T12:28:06.770Z,10.70
2024-04-19T12:30:37.495Z,10.70
2024-04-19T12:33:22.561Z,10.80
2024-04-19T12:35:58.884Z,10.80
2024-04-19T12:38:33.792Z,10.90
2024-04-19T12:41:04.148Z,10.90
2024-04-19T12:43:37.546Z,10.90
2024-04-19T12:46:09.390Z,11.00
2024-04-19T12:48:48.833Z,11.00
2024-04-19T12:51:24.944Z,11.00
2024-04-19T12:53:55.520Z,11.00
2024-04-19T12:56:28.027Z,10.90
2024-04-19T12:59:26.170Z,10.90
2024-04-19T13:01:56.476Z,10.90
2024-04-19T13:04:30.351Z,10.80
2024-04-19T13:07:01.069Z,10.80
2024-04-19T13:09:33.577Z,10.70
2024-04-19T13:12:04.873Z,10.70
2024-04-19T13:14:37.278Z,10.70
2024-04-19T13:17:08.152Z,10.60
2024-04-19T13:19:40.993Z,10.50
2024-04-19T13:22:11.177Z,10.50
2024-04-19T13:24:41.563Z,10.40
2024-04-19T13:27:11.992Z,10.40
2024-04-19T13:29:42.237Z,10.40
2024-04-19T13:32:15.537Z,10.40
2024-04-19T13:34:50.422Z,10.40
2024-04-19T13:37:20.987Z,10.50
2024-04-19T13:40:05.658Z,10.50
2024-04-19T13:42:35.864Z,10.50
2024-04-19T13:45:06.325Z,10.50
2024-04-19T13:47:36.942Z,10.50
2024-04-19T13:50:10.859Z,10.60
2024-04-19T13:52:40.929Z,10.60
2024-04-19T13:55:11.146Z,10.60
2024-04-19T13:57:43.062Z,10.70
2024-04-19T14:00:15.623Z,10.70
2024-04-19T14:02:47.656Z,10.70
2024-04-19T14:05:23.772Z,10.70
2024-04-19T14:07:54.068Z,10.60
2024-04-19T14:10:24.546Z,10.50
2024-04-19T14:12:58.201Z,10.40
2024-04-19T14:15:29.182Z,10.40
2024-04-19T14:17:59.330Z,10.30
2024-04-19T14:20:35.266Z,10.30
2024-04-19T14:23:05.453Z,10.40
2024-04-19T14:25:36.966Z,10.50
2024-04-19T14:28:07.799Z,10.50
2024-04-19T14:30:38.352Z,10.70
2024-04-19T14:33:09.184Z,10.70
2024-04-19T14:35:44.753Z,10.90
2024-04-19T14:38:15.101Z,11.10
2024-04-19T14:40:45.424Z,11.20
2024-04-19T14:43:15.645Z,11.30
2024-04-19T14:45:45.988Z,11.40
2024-04-19T14:48:17.791Z,11.50
2024-04-19T14:50:51.031Z,11.50
2024-04-19T14:53:21.272Z,11.50
2024-04-19T14:55:51.526Z,11.60
2024-04-19T14:58:29.542Z,11.60
2024-04-19T15:00:59.741Z,11.70
2024-04-19T15:03:30.226Z,11.80
2024-04-19T15:06:11.415Z,11.80
2024-04-19T15:08:41.678Z,11.90
2024-04-19T15:11:11.843Z,11.90
2024-04-19T15:13:41.965Z,11.80
2024-04-19T15:16:12.436Z,11.70
2024-04-19T15:18:43.171Z,11.60
2024-04-19T15:21:16.071Z,11.60
2024-04-19T15:23:46.301Z,11.50
2024-04-19T15:26:16.509Z,11.40
2024-04-19T15:28:48.188Z,11.40
2024-04-19T15:31:18.711Z,11.30
2024-04-19T15:33:48.975Z,11.30
2024-04-19T15:36:22.315Z,11.30
2024-04-19T15:38:53.659Z,11.30
2024-04-19T15:41:34.562Z,11.20
2024-04-19T15:44:13.955Z,11.20
2024-04-19T15:46:44.132Z,11.00
2024-04-19T15:49:14.511Z,10.90
2024-04-19T15:51:48.683Z,10.90
2024-04-19T15:54:19.135Z,10.90
2024-04-19T15:56:49.428Z,10.90
2024-04-19T15:59:25.082Z,10.90
2024-04-19T16:01:59.606Z,10.90
2024-04-19T16:04:29.917Z,10.90
2024-04-19T16:07:14.853Z,11.00
2024-04-19T16:09:44.983Z,11.10
2024-04-19T16:12:17.195Z,11.10
2024-04-19T16:14:47.306Z,11.10
2024-04-19T16:17:18.976Z,11.20
2024-04-19T16:19:49.515Z,11.20
2024-04-19T16:22:22.293Z,11.20
2024-04-19T16:24:53.189Z,11.10
2024-04-19T16:27:23.387Z,11.10
2024-04-19T16:29:54.653Z,11.10
2024-04-19T16:32:27.914Z,11.00
2024-04-19T16:35:03.541Z,11.00
2024-04-19T16:37:36.298Z,11.00
2024-04-19T16:40:06.716Z,10.90
2024-04-19T16:42:36.801Z,11.00
2024-04-19T16:45:07.885Z,11.00
2024-04-19T16:47:38.652Z,10.90
2024-04-19T16:50:11.154Z,10.90
2024-04-19T16:52:46.390Z,10.80
2024-04-19T16:55:17.478Z,10.80
2024-04-19T16:57:50.072Z,10.70
2024-04-19T17:00:20.325Z,10.60
2024-04-19T17:02:50.384Z,10.50
2024-04-19T17:05:21.964Z,10.50
2024-04-19T17:07:54.751Z,10.40
2024-04-19T17:10:24.832Z,10.40
2024-04-19T17:12:54.954Z,10.40
2024-04-19T17:15:25.446Z,10.40
2024-04-19T17:17:57.391Z,10.40
2024-04-19T17:20:27.833Z,10.50
2024-04-19T17:23:00.585Z,10.40
2024-04-19T17:25:31.056Z,10.40
2024-04-19T17:28:01.690Z,10.40
2024-04-19T17:30:31.991Z,10.40
2024-04-19T17:33:02.205Z,10.40
2024-04-19T17:35:32.324Z,10.40
2024-04-19T17:38:05.053Z,10.30
2024-04-19T17:40:35.147Z,10.20
2024-04-19T17:43:05.354Z,10.20
2024-04-19T17:45:36.276Z,10.10
2024-04-19T17:48:06.621Z,10.10
2024-04-19T17:50:36.595Z,10.10
2024-04-19T17:53:10.357Z,10.00
2024-04-19T17:55:40.433Z,10.00
2024-04-19T17:58:10.467Z,9.90
2024-04-19T18:00:42.637Z,9.90
2024-04-19T18:03:12.919Z,9.80
2024-04-19T18:05:44.656Z,9.80
2024-04-19T18:08:17.468Z,9.70
2024-04-19T18:10:47.574Z,9.70
2024-04-19T18:13:17.674Z,9.70
2024-04-19T18:15:47.834Z,9.60
2024-04-19T18:18:18.053Z,9.60
2024-04-19T18:20:50.730Z,9.60
2024-04-19T18:23:23.572Z,9.50
2024-04-19T18:25:53.617Z,9.50
2024-04-19T18:28:23.702Z,9.50
2024-04-19T18:30:54.977Z,9.40
2024-04-19T18:33:25.194Z,9.40
2024-04-19T18:35:58.937Z,9.30
2024-04-19T18:38:33.234Z,9.30
2024-04-19T18:41:03.389Z,9.30
2024-04-19T18:43:33.971Z,9.20
2024-04-19T18:46:04.027Z,9.10
2024-04-19T18:48:34.329Z,9.10
2024-04-19T18:51:04.384Z,9.00
2024-04-19T18:53:37.071Z,8.90
2024-04-19T18:56:08.091Z,8.80
2024-04-19T18:58:38.682Z,8.80
2024-04-19T19:01:16.608Z,8.70
2024-04-19T19:03:48.737Z,8.60
2024-04-19T19:06:20.278Z,8.60
2024-04-19T19:08:52.851Z,8.60
2024-04-19T19:11:22.927Z,8.60
2024-04-19T19:13:53.004Z,8.50
2024-04-19T19:16:23.118Z,8.50
2024-04-19T19:18:53.227Z,8.50
2024-04-19T19:21:29.146Z,8.50
2024-04-19T19:24:03.379Z,8.50
2024-04-19T19:26:35.627Z,8.50
2024-04-19T19:29:11.183Z,8.50
2024-04-19T19:31:43.139Z,8.50
2024-04-19T19:34:13.503Z,8.50
2024-04-19T19:36:43.678Z,8.40
2024-04-19T19:39:16.686Z,8.40
2024-04-19T19:41:46.696Z,8.40
2024-04-19T19:44:16.677Z,8.30
2024-04-19T19:46:46.733Z,8.20
2024-04-19T19:49:16.788Z,8.10
2024-04-19T19:51:46.851Z,8.10
2024-04-19T19:54:19.451Z,8.10
2024-04-19T19:56:49.616Z,8.00
2024-04-19T19:59:31.973Z,8.00
2024-04-19T20:02:17.759Z,8.00
2024-04-19T20:05:03.956Z,8.00
2024-04-19T20:07:34.155Z,8.00
2024-04-19T20:10:09.621Z,8.00
2024-04-19T20:12:42.704Z,8.00
2024-04-19T20:15:12.861Z,8.00
2024-04-19T20:17:43.717Z,8.00
2024-04-19T20:20:13.889Z,8.00
2024-04-19T20:22:44.256Z,8.00
2024-04-19T20:25:18.306Z,8.00
2024-04-19T20:27:49.853Z,8.00
2024-04-19T20:30:17.519Z,8.00
2024-04-19T20:32:47.786Z,8.00
2024-04-19T20:35:18.072Z,8.00
2024-04-19T20:37:48.265Z,8.00
2024-04-19T20:40:21.021Z,7.90
2024-04-19T20:43:02.977Z,7.90
2024-04-19T20:45:40.811Z,7.90
2024-04-19T20:48:11.364Z,7.90
2024-04-19T20:50:38.880Z,7.80
2024-04-19T20:53:09.011Z,7.90
2024-04-19T20:55:43.908Z,7.80
2024-04-19T20:58:14.008Z,7.80
2024-04-19T21:00:44.336Z,7.80
2024-04-19T21:03:14.533Z,7.80
2024-04-19T21:05:44.627Z,7.80
2024-04-19T21:08:14.881Z,7.80
2024-04-19T21:10:47.743Z,7.70
2024-04-19T21:13:20.340Z,7.70
2024-04-19T21:16:09.426Z,7.70
2024-04-19T21:18:46.048Z,7.70
2024-04-19T21:21:17.305Z,7.70
2024-04-19T21:23:48.332Z,7.70
2024-04-19T21:26:21.211Z,7.60
2024-04-19T21:28:55.228Z,7.70
2024-04-19T21:31:25.526Z,7.60
2024-04-19T21:33:55.695Z,7.60
2024-04-19T21:36:25.964Z,7.60
2024-04-19T21:38:56.017Z,7.60
2024-04-19T21:41:28.850Z,7.50
2024-04-19T21:43:59.101Z,7.50
2024-04-19T21:46:30.919Z,7.50
2024-04-19T21:49:01.160Z,7.50
2024-04-19T21:51:31.263Z,7.50
2024-04-19T21:54:01.587Z,7.50
2024-04-19T21:56:31.712Z,7.50
2024-04-19T21:59:03.003Z,7.50
2024-04-19T22:01:34.285Z,7.50
2024-04-19T22:04:06.526Z,7.50
2024-04-19T22:06:36.937Z,7.50
2024-04-19T22:09:07.858Z,7.40
2024-04-19T22:11:40.633Z,7.40
2024-04-19T22:14:10.730Z,7.40
2024-04-19T22:16:40.814Z,7.40
2024-04-19T22:19:10.960Z,7.40
2024-04-19T22:21:40.122Z,7.40
2024-04-19T22:24:13.862Z,7.40
2024-04-19T22:26:46.645Z,7.40
2024-04-19T22:29:17.791Z,7.30
2024-04-19T22:31:51.726Z,7.30
2024-04-19T22:34:22.054Z,7.40
2024-04-19T22:36:52.359Z,7.40
2024-04-19T22:39:22.440Z,7.30
2024-04-19T22:41:55.959Z,7.30
2024-04-19T22:44:26.077Z,7.30
2024-04-19T22:46:56.165Z,7.30
2024-04-19T22:49:26.282Z,7.20
2024-04-19T22:51:56.533Z,7.20
2024-04-19T22:54:26.767Z,7.20
2024-04-19T22:56:59.446Z,7.20
2024-04-19T22:59:29.563Z,7.20
2024-04-19T23:01:59.538Z,7.20
2024-04-19T23:04:29.694Z,7.20
2024-04-19T23:06:59.873Z,7.20
2024-04-19T23:09:30.079Z,7.20
2024-04-19T23:12:02.771Z,7.20
2024-04-19T23:14:32.846Z,7.20
2024-04-19T23:17:02.977Z,7.20
2024-04-19T23:19:33.228Z,7.20
2024-04-19T23:22:03.333Z,7.20
2024-04-19T23:24:35.318Z,7.20
2024-04-19T23:27:08.720Z,7.20
2024-04-19T23:29:38.944Z,7.20
2024-04-19T23:32:09.725Z,7.10
2024-04-19T23:34:39.984Z,7.10
2024-04-19T23:37:10.111Z,7.10
2024-04-19T23:39:40.138Z,7.10
2024-04-19T23:42:12.956Z,7.10
2024-04-19T23:44:43.771Z,7.10
2024-04-19T23:47:14.334Z,7.00
2024-04-19T23:49:44.370Z,7.00
2024-04-19T23:52:14.475Z,7.00
2024-04-19T23:54:44.953Z,7.00
2024-04-19T23:57:18.868Z,7.00
2024-04-19T23:59:48.959Z,7.00
